createdAt,value
2024-03-05T00:01:38.498Z,10.13
2024-03-05T00:04:06.642Z,10.67
2024-03-05T00:06:34.471Z,10.47
2024-03-05T00:09:01.942Z,10.13
2024-03-05T00:11:29.328Z,11.30
2024-03-05T00:13:56.965Z,10.77
2024-03-05T00:16:24.487Z,12.93
2024-03-05T00:18:51.855Z,12.77
2024-03-05T00:21:19.366Z,11.50
2024-03-05T00:23:46.737Z,13.43
2024-03-05T00:26:19.378Z,11.67
2024-03-05T00:28:47.096Z,13.40
2024-03-05T00:31:16.270Z,10.20
2024-03-05T00:33:43.640Z,13.57
2024-03-05T00:36:10.920Z,12.57
2024-03-05T00:38:38.293Z,12.17
2024-03-05T00:41:05.641Z,13.27
2024-03-05T00:43:33.578Z,12.73
2024-03-05T00:46:01.862Z,14.07
2024-03-05T00:48:29.283Z,13.43
2024-03-05T00:50:56.736Z,13.70
2024-03-05T00:53:24.118Z,12.50
2024-03-05T00:55:51.715Z,13.53
2024-03-05T00:58:19.305Z,10.40
2024-03-05T01:00:47.013Z,12.77
2024-03-05T01:03:14.430Z,12.80
2024-03-05T01:05:42.234Z,12.10
2024-03-05T01:08:09.645Z,11.90
2024-03-05T01:10:37.211Z,11.70
2024-03-05T01:13:04.711Z,12.77
2024-03-05T01:15:32.015Z,11.57
2024-03-05T01:17:59.513Z,12.47
2024-03-05T01:20:26.988Z,12.10
2024-03-05T01:22:54.546Z,11.27
2024-03-05T01:25:22.071Z,10.70
2024-03-05T01:27:49.397Z,10.83
2024-03-05T01:30:17.206Z,11.47
2024-03-05T01:32:49.800Z,11.07
2024-03-05T01:35:19.587Z,11.63
2024-03-05T01:37:47.033Z,10.33
2024-03-05T01:40:14.696Z,9.77
2024-03-05T01:42:42.447Z,9.47
2024-03-05T01:45:10.382Z,9.63
2024-03-05T01:47:38.141Z,9.37
2024-03-05T01:50:05.691Z,9.30
2024-03-05T01:52:33.676Z,8.70
2024-03-05T01:55:11.361Z,9.50
2024-03-05T01:57:39.354Z,8.33
2024-03-05T02:00:10.916Z,8.50
2024-03-05T02:02:38.515Z,7.50
2024-03-05T02:05:06.586Z,8.37
2024-03-05T02:07:34.033Z,7.80
2024-03-05T02:10:08.492Z,8.13
2024-03-05T02:12:37.595Z,8.65
2024-03-05T02:15:12.213Z,9.07
2024-03-05T02:17:43.884Z,8.93
2024-03-05T02:20:13.382Z,6.50
2024-03-05T02:22:40.762Z,8.20
2024-03-05T02:25:08.338Z,9.37
2024-03-05T02:27:35.738Z,8.90
2024-03-05T02:30:04.175Z,9.27
2024-03-05T02:32:32.054Z,8.47
2024-03-05T02:34:59.977Z,8.43
2024-03-05T02:37:27.934Z,8.83
2024-03-05T02:39:55.332Z,9.37
2024-03-05T02:42:22.659Z,9.20
2024-03-05T02:44:50.110Z,10.00
2024-03-05T02:47:17.429Z,9.73
2024-03-05T02:49:44.802Z,9.43
2024-03-05T02:52:12.979Z,9.73
2024-03-05T02:54:40.345Z,9.03
2024-03-05T02:57:08.529Z,10.80
2024-03-05T02:59:35.948Z,9.77
2024-03-05T03:02:03.394Z,10.13
2024-03-05T03:04:30.821Z,9.53
2024-03-05T03:06:58.230Z,10.97
2024-03-05T03:09:25.715Z,10.33
2024-03-05T03:11:53.009Z,11.03
2024-03-05T03:14:20.687Z,9.90
2024-03-05T03:16:48.061Z,10.60
2024-03-05T03:19:15.562Z,9.57
2024-03-05T03:21:43.320Z,10.25
2024-03-05T03:24:13.838Z,11.53
2024-03-05T03:26:41.216Z,12.65
2024-03-05T03:29:12.681Z,11.30
2024-03-05T03:31:41.335Z,12.05
2024-03-05T03:34:08.636Z,12.50
2024-03-05T03:36:35.982Z,12.33
2024-03-05T03:39:03.940Z,12.90
2024-03-05T03:41:31.315Z,12.65
2024-03-05T03:43:59.485Z,13.00
2024-03-05T03:46:26.937Z,11.70
2024-03-05T03:48:54.254Z,11.65
2024-03-05T03:51:21.714Z,10.05
2024-03-05T03:53:49.100Z,13.93
2024-03-05T03:56:16.943Z,11.83
2024-03-05T03:58:44.323Z,11.73
2024-03-05T04:01:11.658Z,11.77
2024-03-05T04:03:40.952Z,12.17
2024-03-05T04:06:08.307Z,13.30
2024-03-05T04:08:35.543Z,14.57
2024-03-05T04:11:03.213Z,11.90
2024-03-05T04:13:31.060Z,13.07
2024-03-05T04:15:58.924Z,13.63
2024-03-05T04:18:26.735Z,13.77
2024-03-05T04:20:54.799Z,12.10
2024-03-05T04:23:22.985Z,14.27
2024-03-05T04:25:51.513Z,14.67
2024-03-05T04:28:18.925Z,13.00
2024-03-05T04:30:49.782Z,13.40
2024-03-05T04:33:21.364Z,13.87
2024-03-05T04:35:49.225Z,11.90
2024-03-05T04:38:17.266Z,12.87
2024-03-05T04:40:44.646Z,14.47
2024-03-05T04:43:12.122Z,14.87
2024-03-05T04:45:39.580Z,13.40
2024-03-05T04:48:07.128Z,16.43
2024-03-05T04:50:34.466Z,13.57
2024-03-05T04:53:02.011Z,14.67
2024-03-05T04:55:29.453Z,14.80
2024-03-05T04:57:56.848Z,12.93
2024-03-05T05:00:25.359Z,13.55
2024-03-05T05:02:53.971Z,12.65
2024-03-05T05:05:26.392Z,13.70
2024-03-05T05:07:56.648Z,12.23
2024-03-05T05:10:24.032Z,14.77
2024-03-05T05:12:51.396Z,14.93
2024-03-05T05:15:18.856Z,14.32
2024-03-05T05:17:46.512Z,14.00
2024-03-05T05:20:16.823Z,14.20
2024-03-05T05:22:45.839Z,14.13
2024-03-05T05:25:17.801Z,15.73
2024-03-05T05:27:45.454Z,12.93
2024-03-05T05:30:14.516Z,14.10
2024-03-05T05:32:42.359Z,14.90
2024-03-05T05:35:10.307Z,14.87
2024-03-05T05:37:41.073Z,14.93
2024-03-05T05:40:20.832Z,15.50
2024-03-05T05:42:49.882Z,16.77
2024-03-05T05:45:17.405Z,15.20
2024-03-05T05:47:55.641Z,16.00
2024-03-05T05:50:24.170Z,15.40
2024-03-05T05:52:54.319Z,15.30
2024-03-05T05:55:22.175Z,14.07
2024-03-05T05:57:49.572Z,10.37
2024-03-05T06:00:24.427Z,14.73
2024-03-05T06:02:53.203Z,14.98
2024-03-05T06:05:21.202Z,16.53
2024-03-05T06:07:48.479Z,17.33
2024-03-05T06:10:18.718Z,14.70
2024-03-05T06:12:46.646Z,16.27
2024-03-05T06:15:14.284Z,15.77
2024-03-05T06:17:42.284Z,15.27
2024-03-05T06:20:13.493Z,18.00
2024-03-05T06:22:41.169Z,15.40
2024-03-05T06:25:14.654Z,16.03
2024-03-05T06:27:42.256Z,16.40
2024-03-05T06:30:14.391Z,16.13
2024-03-05T06:32:49.596Z,18.07
2024-03-05T06:37:48.290Z,17.30
2024-03-05T06:40:17.643Z,17.00
2024-03-05T06:42:53.595Z,17.27
2024-03-05T06:45:30.931Z,17.50
2024-03-05T06:50:38.202Z,19.70
2024-03-05T06:53:24.488Z,18.40
2024-03-05T06:56:10.831Z,17.97
2024-03-05T06:58:40.199Z,17.27
2024-03-05T07:01:10.832Z,16.27
2024-03-05T07:03:41.818Z,16.53
2024-03-05T07:06:11.473Z,18.00
2024-03-05T07:08:42.493Z,18.77
2024-03-05T07:11:11.391Z,17.30
2024-03-05T07:13:42.255Z,18.73
2024-03-05T07:16:17.613Z,16.40
2024-03-05T07:18:46.239Z,15.10
2024-03-05T07:21:13.565Z,16.77
2024-03-05T07:23:45.378Z,16.93
2024-03-05T07:26:14.316Z,16.17
2024-03-05T07:28:42.373Z,15.77
2024-03-05T07:31:09.760Z,14.80
2024-03-05T07:33:37.086Z,17.53
2024-03-05T07:36:04.523Z,17.73
2024-03-05T07:38:32.395Z,15.37
2024-03-05T07:40:59.807Z,13.57
2024-03-05T07:43:27.235Z,15.43
2024-03-05T07:45:54.630Z,16.20
2024-03-05T07:48:21.979Z,15.57
2024-03-05T07:50:50.304Z,14.10
2024-03-05T07:53:17.725Z,15.80
2024-03-05T07:55:47.107Z,15.57
2024-03-05T07:58:15.250Z,14.80
2024-03-05T08:00:42.897Z,15.40
2024-03-05T08:03:11.650Z,15.13
2024-03-05T08:05:43.089Z,14.40
2024-03-05T08:08:10.958Z,12.97
2024-03-05T08:10:38.429Z,15.57
2024-03-05T08:13:05.879Z,17.63
2024-03-05T08:15:33.170Z,11.67
2024-03-05T08:18:00.778Z,15.77
2024-03-05T08:20:28.378Z,15.77
2024-03-05T08:22:56.497Z,14.20
2024-03-05T08:25:24.840Z,13.97
2024-03-05T08:27:55.713Z,14.10
2024-03-05T08:30:24.016Z,16.27
2024-03-05T08:32:52.677Z,16.63
2024-03-05T08:35:20.172Z,14.90
2024-03-05T08:37:48.530Z,12.70
2024-03-05T08:40:17.305Z,15.53
2024-03-05T08:42:45.255Z,15.07
2024-03-05T08:45:13.971Z,16.40
2024-03-05T08:47:42.366Z,14.90
2024-03-05T08:50:09.856Z,14.57
2024-03-05T08:52:37.193Z,15.03
2024-03-05T08:55:06.377Z,15.40
2024-03-05T08:57:33.792Z,16.90
2024-03-05T09:00:16.056Z,17.00
2024-03-05T09:02:50.052Z,15.90
2024-03-05T09:05:17.437Z,13.30
2024-03-05T09:07:45.159Z,16.73
2024-03-05T09:10:12.550Z,15.67
2024-03-05T09:12:39.911Z,15.30
2024-03-05T09:15:07.523Z,15.43
2024-03-05T09:17:38.285Z,15.10
2024-03-05T09:20:15.250Z,14.70
2024-03-05T09:22:45.979Z,15.30
2024-03-05T09:25:14.277Z,14.70
2024-03-05T09:27:46.643Z,14.40
2024-03-05T09:30:16.675Z,14.20
2024-03-05T09:32:45.508Z,15.50
2024-03-05T09:35:14.610Z,15.40
2024-03-05T09:37:46.306Z,14.03
2024-03-05T09:40:20.898Z,14.10
2024-03-05T09:42:48.955Z,12.63
2024-03-05T09:45:17.493Z,13.80
2024-03-05T09:47:45.537Z,14.67
2024-03-05T09:50:13.696Z,12.23
2024-03-05T09:52:41.730Z,16.77
2024-03-05T09:55:10.400Z,15.27
2024-03-05T09:57:40.373Z,14.40
2024-03-05T10:00:16.816Z,11.87
2024-03-05T10:02:44.738Z,16.07
2024-03-05T10:05:12.709Z,15.30
2024-03-05T10:07:40.261Z,15.20
2024-03-05T10:10:12.158Z,14.73
2024-03-05T10:12:40.812Z,13.60
2024-03-05T10:15:22.396Z,15.73
2024-03-05T10:17:51.212Z,15.17
2024-03-05T10:20:28.904Z,13.77
2024-03-05T10:23:01.402Z,15.03
2024-03-05T10:25:29.677Z,14.13
2024-03-05T10:27:57.814Z,15.10
2024-03-05T10:30:33.587Z,15.03
2024-03-05T10:33:02.891Z,13.37
2024-03-05T10:35:30.944Z,15.60
2024-03-05T10:37:58.530Z,15.83
2024-03-05T10:40:28.664Z,12.63
2024-03-05T10:42:59.940Z,14.47
2024-03-05T10:45:30.350Z,14.90
2024-03-05T10:48:00.956Z,15.90
2024-03-05T10:50:28.875Z,16.23
2024-03-05T10:52:56.892Z,14.93
2024-03-05T10:55:24.792Z,14.23
2024-03-05T10:58:22.328Z,16.50
2024-03-05T11:00:50.708Z,15.50
2024-03-05T11:03:21.567Z,14.20
2024-03-05T11:05:53.079Z,14.87
2024-03-05T11:08:21.437Z,14.93
2024-03-05T11:10:51.940Z,15.98
2024-03-05T11:13:20.014Z,13.35
2024-03-05T11:15:47.664Z,15.55
2024-03-05T11:18:31.087Z,14.87
2024-03-05T11:20:58.518Z,15.07
2024-03-05T11:23:34.173Z,15.93
2024-03-05T11:26:06.299Z,15.90
2024-03-05T11:28:34.392Z,15.27
2024-03-05T11:31:11.594Z,16.95
2024-03-05T11:33:41.740Z,15.55
2024-03-05T11:36:35.797Z,15.77
2024-03-05T11:39:07.410Z,15.52
2024-03-05T11:41:36.064Z,15.80
2024-03-05T11:44:04.423Z,16.97
2024-03-05T11:46:42.213Z,16.47
2024-03-05T11:49:12.531Z,17.43
2024-03-05T11:51:41.636Z,15.80
2024-03-05T11:54:12.683Z,14.60
2024-03-05T11:56:59.262Z,15.50
2024-03-05T11:59:35.923Z,16.53
2024-03-05T12:02:04.042Z,12.90
2024-03-05T12:04:31.443Z,15.97
2024-03-05T12:07:08.257Z,15.52
2024-03-05T12:09:39.406Z,15.07
2024-03-05T12:12:13.810Z,15.53
2024-03-05T12:14:42.733Z,16.00
2024-03-05T12:17:13.719Z,14.55
2024-03-05T12:19:41.793Z,15.27
2024-03-05T12:22:10.532Z,13.43
2024-03-05T12:24:40.821Z,14.43
2024-03-05T12:27:08.364Z,21.45
2024-03-05T12:29:41.683Z,16.15
2024-03-05T12:32:10.323Z,16.48
2024-03-05T12:34:38.191Z,15.70
2024-03-05T12:37:11.535Z,12.45
2024-03-05T12:39:40.210Z,14.35
2024-03-05T12:42:15.458Z,14.25
2024-03-05T12:47:21.168Z,16.40
2024-03-05T12:49:49.165Z,16.73
2024-03-05T12:52:24.061Z,17.38
2024-03-05T12:54:59.056Z,18.33
2024-03-05T12:57:27.473Z,18.63
2024-03-05T12:59:55.511Z,12.97
2024-03-05T13:02:23.470Z,16.53
2024-03-05T13:04:51.476Z,18.90
2024-03-05T13:07:19.213Z,20.10
2024-03-05T13:09:46.904Z,20.15
2024-03-05T13:12:14.525Z,15.03
2024-03-05T13:14:42.495Z,17.98
2024-03-05T13:17:11.509Z,18.03
2024-03-05T13:19:39.342Z,17.83
2024-03-05T13:22:06.990Z,18.20
2024-03-05T13:24:35.937Z,19.70
2024-03-05T13:27:05.050Z,18.48
2024-03-05T13:29:32.810Z,19.97
2024-03-05T13:32:00.866Z,20.80
2024-03-05T13:34:28.841Z,20.57
2024-03-05T13:36:56.642Z,20.40
2024-03-05T13:39:24.368Z,21.30
2024-03-05T13:41:54.966Z,20.27
2024-03-05T13:44:24.340Z,18.87
2024-03-05T13:46:53.510Z,20.27
2024-03-05T13:49:25.388Z,20.20
2024-03-05T13:51:53.273Z,18.77
2024-03-05T13:54:20.991Z,20.60
2024-03-05T13:56:50.556Z,19.13
2024-03-05T13:59:18.378Z,20.77
2024-03-05T14:01:46.119Z,22.10
2024-03-05T14:04:13.730Z,19.53
2024-03-05T14:06:42.531Z,18.80
2024-03-05T14:09:10.842Z,19.40
2024-03-05T14:11:41.897Z,20.67
2024-03-05T14:14:10.343Z,19.37
2024-03-05T14:16:39.976Z,21.00
2024-03-05T14:19:08.870Z,22.77
2024-03-05T14:21:37.166Z,22.83
2024-03-05T14:24:04.632Z,18.83
2024-03-05T14:26:32.332Z,22.42
2024-03-05T14:29:04.766Z,21.70
2024-03-05T14:31:34.596Z,22.13
2024-03-05T14:34:02.243Z,22.30
2024-03-05T14:36:29.592Z,23.77
2024-03-05T14:38:56.954Z,24.53
2024-03-05T14:41:24.394Z,22.87
2024-03-05T14:43:51.795Z,24.03
2024-03-05T14:46:19.272Z,23.90
2024-03-05T14:48:46.757Z,19.23
2024-03-05T14:51:14.857Z,19.40
2024-03-05T14:53:42.275Z,22.10
2024-03-05T14:56:09.786Z,24.48
2024-03-05T14:58:38.230Z,22.30
2024-03-05T15:01:05.813Z,22.90
2024-03-05T15:03:33.395Z,24.10
2024-03-05T15:06:00.871Z,24.15
2024-03-05T15:08:28.311Z,25.80
2024-03-05T15:10:55.803Z,28.67
2024-03-05T15:13:25.110Z,26.88
2024-03-05T15:15:52.525Z,26.10
2024-03-05T15:18:21.323Z,28.30
2024-03-05T15:20:48.790Z,27.50
2024-03-05T15:23:16.219Z,28.90
2024-03-05T15:25:43.624Z,27.63
2024-03-05T15:28:12.544Z,28.00
2024-03-05T15:30:40.151Z,23.70
2024-03-05T15:33:10.687Z,29.10
2024-03-05T15:35:38.669Z,24.33
2024-03-05T15:38:08.778Z,116.43
2024-03-05T15:40:39.017Z,32.88
2024-03-05T15:43:08.417Z,33.93
2024-03-05T15:45:39.619Z,29.33
2024-03-05T15:48:11.814Z,31.00
2024-03-05T15:50:42.600Z,30.00
2024-03-05T15:53:10.463Z,29.00
2024-03-05T15:55:43.487Z,29.90
2024-03-05T15:58:20.287Z,30.13
2024-03-05T16:00:50.834Z,27.87
2024-03-05T16:03:18.329Z,30.20
2024-03-05T16:05:55.729Z,30.00
2024-03-05T16:08:31.100Z,28.73
2024-03-05T16:11:00.530Z,29.97
2024-03-05T16:13:30.815Z,31.37
2024-03-05T16:15:58.621Z,29.20
2024-03-05T16:18:25.970Z,31.07
2024-03-05T16:20:54.137Z,32.70
2024-03-05T16:23:21.696Z,26.90
2024-03-05T16:25:49.116Z,31.93
2024-03-05T16:28:18.374Z,31.50
2024-03-05T16:30:45.940Z,32.03
2024-03-05T16:33:13.510Z,31.60
2024-03-05T16:35:40.890Z,34.63
2024-03-05T16:38:08.732Z,33.27
2024-03-05T16:40:38.835Z,35.30
2024-03-05T16:43:07.961Z,24.77
2024-03-05T16:45:36.672Z,34.67
2024-03-05T16:48:10.818Z,24.27
2024-03-05T16:50:40.699Z,26.73
2024-03-05T16:53:10.749Z,31.00
2024-03-05T16:55:38.909Z,27.87
2024-03-05T16:58:12.676Z,25.93
2024-03-05T17:00:48.943Z,31.83
2024-03-05T17:03:16.920Z,31.30
2024-03-05T17:05:47.726Z,31.97
2024-03-05T17:08:16.227Z,34.53
2024-03-05T17:10:45.548Z,32.20
2024-03-05T17:13:20.183Z,34.73
2024-03-05T17:15:54.634Z,37.17
2024-03-05T17:18:25.782Z,29.60
2024-03-05T17:20:54.708Z,30.23
2024-03-05T17:23:25.981Z,29.30
2024-03-05T17:25:56.314Z,32.30
2024-03-05T17:28:24.767Z,39.47
2024-03-05T17:30:52.090Z,46.80
2024-03-05T17:33:19.894Z,35.67
2024-03-05T17:35:47.358Z,36.53
2024-03-05T17:38:15.152Z,30.93
2024-03-05T17:40:42.811Z,37.80
2024-03-05T17:43:11.015Z,34.20
2024-03-05T17:45:38.431Z,32.73
2024-03-05T17:48:08.417Z,35.47
2024-03-05T17:50:36.721Z,33.53
2024-03-05T17:53:06.853Z,34.87
2024-03-05T17:55:36.198Z,35.20
2024-03-05T17:58:05.797Z,35.67
2024-03-05T18:00:45.952Z,27.33
2024-03-05T18:03:15.372Z,37.73
2024-03-05T18:05:47.031Z,35.47
2024-03-05T18:08:14.955Z,37.60
2024-03-05T18:10:43.130Z,38.57
2024-03-05T18:13:10.896Z,37.60
2024-03-05T18:15:38.352Z,36.60
2024-03-05T18:18:07.805Z,37.03
2024-03-05T18:20:36.629Z,35.60
2024-03-05T18:23:06.467Z,38.17
2024-03-05T18:25:37.844Z,36.53
2024-03-05T18:28:06.485Z,39.20
2024-03-05T18:30:39.191Z,36.67
2024-03-05T18:33:12.792Z,35.63
2024-03-05T18:35:41.585Z,38.23
2024-03-05T18:40:41.418Z,37.07
2024-03-05T18:43:11.088Z,38.10
2024-03-05T18:45:41.155Z,37.97
2024-03-05T18:48:10.359Z,39.40
2024-03-05T18:50:38.933Z,40.47
2024-03-05T18:53:09.096Z,40.10
2024-03-05T18:55:37.718Z,42.47
2024-03-05T18:58:08.178Z,41.87
2024-03-05T19:00:38.164Z,40.67
2024-03-05T19:03:06.376Z,38.60
2024-03-05T19:05:35.123Z,39.47
2024-03-05T19:08:03.151Z,40.07
2024-03-05T19:10:31.852Z,40.20
2024-03-05T19:13:00.167Z,42.43
2024-03-05T19:15:29.825Z,40.97
2024-03-05T19:17:58.737Z,41.30
2024-03-05T19:20:27.432Z,42.87
2024-03-05T19:22:55.253Z,43.40
2024-03-05T19:25:23.660Z,43.17
2024-03-05T19:27:52.212Z,43.50
2024-03-05T19:30:19.896Z,42.43
2024-03-05T19:32:48.354Z,41.03
2024-03-05T19:35:17.919Z,39.77
2024-03-05T19:37:47.383Z,39.53
2024-03-05T19:40:20.511Z,39.10
2024-03-05T19:42:54.762Z,40.63
2024-03-05T19:45:22.484Z,43.53
2024-03-05T19:47:50.274Z,44.77
2024-03-05T19:50:19.278Z,42.53
2024-03-05T19:52:47.070Z,53.37
2024-03-05T19:55:16.358Z,45.00
2024-03-05T19:57:44.657Z,59.13
2024-03-05T20:00:20.481Z,48.80
2024-03-05T20:02:48.848Z,49.03
2024-03-05T20:05:23.696Z,46.40
2024-03-05T20:07:53.485Z,44.30
2024-03-05T20:10:22.429Z,43.53
2024-03-05T20:12:49.986Z,43.70
2024-03-05T20:15:17.504Z,42.37
2024-03-05T20:17:45.579Z,45.33
2024-03-05T20:20:20.692Z,45.40
2024-03-05T20:22:49.529Z,43.72
2024-03-05T20:25:22.890Z,43.27
2024-03-05T20:27:52.205Z,42.07
2024-03-05T20:30:20.039Z,42.77
2024-03-05T20:32:47.863Z,39.60
2024-03-05T20:35:23.776Z,44.40
2024-03-05T20:37:52.421Z,50.07
2024-03-05T20:40:21.681Z,42.70
2024-03-05T20:42:49.620Z,41.00
2024-03-05T20:45:17.520Z,42.57
2024-03-05T20:47:45.016Z,42.10
2024-03-05T20:50:13.063Z,40.63
2024-03-05T20:52:40.652Z,39.67
2024-03-05T20:55:10.088Z,39.27
2024-03-05T20:57:38.707Z,39.43
2024-03-05T21:00:13.452Z,39.87
2024-03-05T21:02:42.673Z,40.10
2024-03-05T21:05:11.211Z,39.87
2024-03-05T21:07:38.925Z,40.50
2024-03-05T21:10:10.451Z,39.97
2024-03-05T21:12:39.160Z,41.10
2024-03-05T21:15:11.069Z,38.77
2024-03-05T21:17:39.160Z,40.17
2024-03-05T21:20:17.220Z,38.43
2024-03-05T21:22:45.278Z,43.40
2024-03-05T21:25:13.033Z,39.60
2024-03-05T21:27:41.953Z,42.90
2024-03-05T21:30:11.011Z,36.97
2024-03-05T21:32:38.430Z,40.30
2024-03-05T21:35:09.726Z,35.53
2024-03-05T21:37:39.035Z,36.70
2024-03-05T21:40:07.295Z,32.80
2024-03-05T21:42:34.957Z,33.37
2024-03-05T21:45:02.503Z,32.90
2024-03-05T21:47:30.825Z,31.93
2024-03-05T21:49:59.284Z,31.17
2024-03-05T21:52:26.894Z,32.87
2024-03-05T21:54:54.345Z,31.53
2024-03-05T21:57:21.775Z,31.53
2024-03-05T21:59:49.262Z,32.70
2024-03-05T22:02:17.606Z,30.50
2024-03-05T22:04:45.380Z,30.93
2024-03-05T22:07:12.740Z,31.33
2024-03-05T22:09:41.362Z,29.77
2024-03-05T22:12:08.984Z,30.63
2024-03-05T22:14:36.509Z,29.90
2024-03-05T22:17:09.313Z,29.43
2024-03-05T22:19:37.134Z,27.80
2024-03-05T22:22:04.497Z,28.87
2024-03-05T22:24:31.935Z,27.80
2024-03-05T22:26:59.564Z,28.60
2024-03-05T22:29:27.024Z,30.20
2024-03-05T22:31:55.642Z,29.20
2024-03-05T22:34:23.210Z,29.43
2024-03-05T22:36:50.622Z,30.70
2024-03-05T22:39:18.125Z,30.07
2024-03-05T22:41:45.640Z,31.70
2024-03-05T22:44:13.217Z,30.50
2024-03-05T22:46:40.804Z,31.53
2024-03-05T22:49:09.036Z,30.53
2024-03-05T22:51:36.385Z,30.03
2024-03-05T22:54:04.314Z,31.17
2024-03-05T22:56:31.759Z,29.23
2024-03-05T22:58:59.675Z,30.00
2024-03-05T23:01:27.472Z,28.10
2024-03-05T23:03:54.955Z,28.30
2024-03-05T23:06:25.527Z,28.67
2024-03-05T23:08:53.443Z,27.47
2024-03-05T23:11:21.367Z,27.53
2024-03-05T23:13:48.868Z,28.70
2024-03-05T23:16:16.313Z,28.07
2024-03-05T23:18:43.756Z,27.70
2024-03-05T23:21:12.798Z,26.30
2024-03-05T23:23:43.742Z,29.60
2024-03-05T23:26:11.227Z,26.33
2024-03-05T23:28:39.381Z,26.93
2024-03-05T23:31:07.736Z,27.03
2024-03-05T23:33:35.486Z,26.70
2024-03-05T23:36:02.973Z,26.83
2024-03-05T23:38:30.422Z,29.10
2024-03-05T23:40:57.904Z,27.73
2024-03-05T23:43:25.341Z,27.77
2024-03-05T23:45:55.553Z,26.60
2024-03-05T23:48:23.338Z,26.90
2024-03-05T23:50:50.768Z,26.07
2024-03-05T23:53:19.165Z,25.27
2024-03-05T23:55:46.774Z,25.73
2024-03-05T23:58:14.286Z,25.67
